Aérodrome :
LOGIN :

S'inscrire | Disclaimer

   EN    FR    IT 

 










Légende :    VFR   VFR Marginal   IFR   IFR Intensif   IFR Très Intensif
Visi : 
Plafond : 
>= 8 km
>= 3000ft
5 à 8 km
1000 à 3000 ft
1500m à 5 km
500 à 1000 ft
800 à 1500m
200 à 500 ft
< 800m
< 200 ft
Symboles :   Orages  Brouillard  Fortes neiges  Fortes précipitations  Vent > 20 kt
SIGMETs :   Divers  Orages  Givrage  Turbulence  Onde Orograph.  Cendres Volcan.






- Altitude de l'aérodrome : 26 ft
- Code IATA : BIA


LFKB - Bastia

DERNIER METAR :
  • 220700Z AUTO 20004KT CAVOK 09/06 Q1010 NOSIG

METARs EXPIRÉS :
  • 220630Z AUTO 20005KT CAVOK 09/06 Q1010 NOSIG
  • 220600Z AUTO 21005KT 170V230 CAVOK 09/06 Q1010 NOSIG
  • 220530Z AUTO 20005KT 9999 FEW100 BKN140 BKN160 10/06 Q1010 NOSIG
  • 220500Z AUTO 22005KT 190V250 9999 FEW084 BKN110 OVC150 10/07 Q1010 NOSIG
  • 220430Z AUTO 21006KT 9999 FEW082 BKN160 11/07 Q1010 NOSIG
  • 220400Z AUTO 22007KT 9999 FEW080 SCT100 BKN180 10/07 Q1010 NOSIG

TAF TAF LFKB
Valide du 22 à 03h jusqu'au 23 à 03h UTC


220200Z 2203/2303 22005KT 9999 FEW030 BKN110 TX16/2212Z TN09/2203Z
BECMG 2208/2210 15010KT
TEMPO 2215/2221 4000 RA BKN030 FEW035CB BKN060 BKN100
PROB40
TEMPO 2221/2303 2000 TSRA BKN010 BKN025 SCT030CB BKN050
ATIS : +33 4 95 59 19 40



MET'MAP, la Météo Aéronautique d'un coup d'oeil ! - Copyright ORBIFLY Décembre 2007 - Disclaimer

ORBIFLY MET'MAP TEAM :

Programmation & Développement : Alexandra Zaïnal
Conception & Développement : Baudouin d'Aumeries
Co-Programmation & Développement : Marc-Olivier Méhu
Soutien technique & logistique : Manuel Goepfert

Contact : metmap@orbifly.com




SOURCES & CREDITS :

   NOAA